Time;durP1;ratioP1;P1;durP2;ratioP2;P2;SDS_P1;SDS_P2;PMS_P1;PMS_P2;Temp;Humidity;BMP_temperature;BMP_pressure;BME280_temperature;BME280_humidity;BME280_pressure;Samples;Min_cycle;Max_cycle;Signal;HPM_P1;HPM_P2
2022/06/27 03:00:36;;;;;;;0.50;0.50;;;30.00;43.00;;;;;;5859800;23;45847;-55
2022/06/27 03:03:02;;;;;;;0.68;0.68;;;30.00;43.10;;;;;;4925246;28;47051;-55
2022/06/27 03:05:28;;;;;;;2.72;0.80;;;29.90;43.00;;;;;;4900651;28;44643;-55
2022/06/27 03:07:53;;;;;;;0.68;0.68;;;29.90;43.00;;;;;;4918145;28;45531;-57
2022/06/27 03:10:19;;;;;;;1.17;0.70;;;29.90;43.10;;;;;;4927787;28;45513;-54
2022/06/27 03:12:45;;;;;;;0.70;0.70;;;29.80;43.00;;;;;;4930898;28;45881;-55
2022/06/27 03:15:10;;;;;;;1.50;0.80;;;29.80;43.00;;;;;;4932267;28;45534;-56
2022/06/27 03:17:36;;;;;;;0.88;0.70;;;29.90;43.10;;;;;;4931988;28;45239;-55
2022/06/27 03:20:02;;;;;;;0.68;0.68;;;29.90;43.10;;;;;;4939012;28;45555;-56
2022/06/27 03:22:27;;;;;;;0.95;0.95;;;29.90;43.10;;;;;;4933340;28;45191;-57
2022/06/27 03:24:53;;;;;;;0.90;0.70;;;29.90;43.10;;;;;;4932209;28;45034;-58
2022/06/27 03:27:18;;;;;;;0.90;0.90;;;29.90;43.20;;;;;;4939646;28;45295;-57
2022/06/27 03:29:45;;;;;;;0.80;0.80;;;29.90;43.10;;;;;;4934238;28;45453;-55
2022/06/27 03:32:10;;;;;;;0.90;0.90;;;29.90;43.10;;;;;;4930554;28;46312;-55
2022/06/27 03:34:36;;;;;;;0.73;0.73;;;29.90;43.20;;;;;;4934601;28;45247;-54
2022/06/27 03:37:02;;;;;;;0.80;0.80;;;29.90;43.20;;;;;;4936602;28;45253;-54
2022/06/27 03:39:27;;;;;;;1.00;1.00;;;29.90;43.20;;;;;;4938406;28;45493;-54
2022/06/27 03:41:53;;;;;;;0.77;0.77;;;29.90;43.20;;;;;;4933861;28;44985;-55
2022/06/27 03:44:18;;;;;;;0.70;0.70;;;29.90;43.30;;;;;;4933885;28;45304;-54
2022/06/27 03:46:44;;;;;;;0.60;0.60;;;29.90;43.20;;;;;;4935236;28;45331;-56
2022/06/27 03:51:54;;;;;;;0.90;0.90;;;29.90;43.20;;;;;;4935087;28;45909;-55
2022/06/27 03:54:20;;;;;;;0.70;0.70;;;29.90;43.30;;;;;;4917218;28;46507;-54
2022/06/27 03:56:45;;;;;;;0.90;0.90;;;29.90;43.30;;;;;;4935638;28;45554;-55
2022/06/27 03:59:11;;;;;;;0.80;0.80;;;29.80;43.30;;;;;;4935101;28;45265;-52
2022/06/27 04:01:36;;;;;;;0.85;0.85;;;29.90;43.40;;;;;;4925773;28;46305;-55
2022/06/27 04:04:02;;;;;;;1.15;0.70;;;29.80;43.30;;;;;;4936567;28;44853;-55
2022/06/27 04:06:28;;;;;;;0.80;0.80;;;29.90;43.30;;;;;;4938691;28;45172;-54
2022/06/27 04:08:53;;;;;;;0.73;0.73;;;29.90;43.40;;;;;;4939709;28;45491;-55
2022/06/27 04:11:19;;;;;;;0.70;0.70;;;29.90;43.40;;;;;;4927761;28;46042;-55
2022/06/27 04:13:44;;;;;;;0.77;0.77;;;29.90;43.40;;;;;;4930542;28;45483;-55
2022/06/27 04:16:10;;;;;;;0.90;0.90;;;29.80;43.40;;;;;;4934201;28;44810;-57
2022/06/27 04:18:35;;;;;;;0.75;0.75;;;29.90;43.50;;;;;;4937080;28;45257;-54
2022/06/27 04:21:01;;;;;;;0.98;0.88;;;29.80;43.50;;;;;;4935845;28;45878;-54
2022/06/27 04:23:27;;;;;;;1.33;0.70;;;29.80;43.50;;;;;;4935601;28;45448;-56
2022/06/27 04:25:52;;;;;;;1.10;0.90;;;29.80;43.50;;;;;;4938359;28;45079;-57
2022/06/27 04:28:18;;;;;;;1.33;0.90;;;29.80;43.50;;;;;;4942473;28;45523;-54
2022/06/27 04:30:44;;;;;;;1.55;1.00;;;29.80;43.50;;;;;;4938102;28;45987;-56
2022/06/27 04:33:10;;;;;;;1.77;0.80;;;29.80;43.50;;;;;;4928008;28;45566;-55
2022/06/27 04:35:36;;;;;;;0.90;0.90;;;29.80;43.50;;;;;;4926439;28;45263;-55
2022/06/27 04:38:02;;;;;;;1.40;0.90;;;29.80;43.50;;;;;;4929326;28;45487;-56
2022/06/27 04:40:28;;;;;;;1.33;0.98;;;29.90;43.60;;;;;;4930381;28;45905;-55
2022/06/27 04:42:53;;;;;;;1.77;1.02;;;29.90;43.60;;;;;;4932455;28;45686;-56
2022/06/27 04:45:19;;;;;;;1.80;0.82;;;29.80;43.70;;;;;;4931962;28;45536;-56
2022/06/27 04:47:45;;;;;;;0.80;0.80;;;29.90;43.70;;;;;;4930403;28;45474;-56
2022/06/27 04:50:13;;;;;;;1.30;1.02;;;29.80;43.60;;;;;;4931961;28;45848;-54
2022/06/27 04:52:39;;;;;;;1.20;1.10;;;29.80;43.70;;;;;;4931514;28;45432;-55
2022/06/27 04:55:09;;;;;;;2.88;1.00;;;29.80;43.70;;;;;;4930439;28;45489;-57
2022/06/27 04:57:39;;;;;;;2.35;1.05;;;29.80;43.70;;;;;;4929705;28;45034;-56
2022/06/27 05:00:07;;;;;;;1.73;0.90;;;29.90;43.80;;;;;;4915993;28;46133;-54
2022/06/27 05:02:32;;;;;;;0.73;0.70;;;29.90;43.70;;;;;;4925295;28;45374;-57
2022/06/27 05:04:58;;;;;;;2.65;1.10;;;29.90;43.70;;;;;;4930703;28;45589;-53
2022/06/27 05:07:23;;;;;;;0.93;0.90;;;29.90;43.70;;;;;;4924104;28;45658;-56
2022/06/27 05:09:52;;;;;;;0.90;0.90;;;29.90;43.80;;;;;;4925650;28;46125;-55
2022/06/27 05:12:19;;;;;;;1.60;1.10;;;29.90;43.80;;;;;;4928461;28;45520;-55
2022/06/27 05:14:44;;;;;;;1.38;1.05;;;29.90;43.80;;;;;;4935775;28;45637;-58
2022/06/27 05:17:10;;;;;;;1.00;1.00;;;29.90;43.80;;;;;;4917951;28;45592;-56
2022/06/27 05:19:36;;;;;;;0.73;0.70;;;29.90;43.80;;;;;;4933646;28;46241;-55
2022/06/27 05:22:01;;;;;;;0.90;0.90;;;29.90;43.80;;;;;;4930673;28;45400;-55
2022/06/27 05:24:27;;;;;;;1.27;0.85;;;29.90;43.80;;;;;;4929602;28;45363;-53
2022/06/27 05:26:54;;;;;;;0.80;0.80;;;29.90;43.80;;;;;;4933657;28;44984;-55
2022/06/27 05:29:20;;;;;;;0.88;0.82;;;29.90;43.80;;;;;;4919139;28;46293;-54
2022/06/27 05:31:46;;;;;;;0.90;0.90;;;29.90;43.90;;;;;;4933469;28;45244;-54
2022/06/27 05:34:11;;;;;;;0.73;0.73;;;29.90;43.90;;;;;;4943852;28;45002;-53
2022/06/27 05:36:37;;;;;;;0.95;0.95;;;29.90;44.00;;;;;;4938128;28;45592;-55
2022/06/27 05:39:03;;;;;;;1.50;1.08;;;29.90;44.00;;;;;;4940386;28;46407;-55
2022/06/27 05:41:29;;;;;;;0.82;0.82;;;29.90;44.00;;;;;;4934673;28;45268;-55
2022/06/27 05:43:55;;;;;;;0.90;0.90;;;29.90;44.00;;;;;;4939399;28;45458;-54
2022/06/27 05:46:20;;;;;;;0.80;0.80;;;30.00;44.10;;;;;;4936082;28;45597;-53
2022/06/27 05:48:46;;;;;;;1.95;1.00;;;29.90;44.00;;;;;;4941331;28;46298;-56
2022/06/27 05:51:12;;;;;;;0.90;0.90;;;30.00;44.10;;;;;;4935964;28;45480;-51
2022/06/27 05:53:38;;;;;;;1.40;1.30;;;30.00;44.20;;;;;;4932386;28;45547;-52
2022/06/27 05:56:06;;;;;;;1.80;1.27;;;29.90;44.20;;;;;;4932766;28;45145;-55
2022/06/27 05:58:32;;;;;;;2.67;1.35;;;29.90;44.60;;;;;;4945181;28;45291;-52
2022/06/27 06:00:58;;;;;;;3.75;1.58;;;30.00;44.90;;;;;;4933519;28;45113;-52
2022/06/27 06:03:24;;;;;;;4.13;1.55;;;29.90;45.10;;;;;;4935562;28;45226;-55
2022/06/27 06:05:50;;;;;;;1.40;1.30;;;29.90;45.40;;;;;;4932958;28;45268;-57
2022/06/27 06:08:15;;;;;;;2.55;1.70;;;29.90;45.60;;;;;;4938690;28;45438;-54
2022/06/27 06:10:41;;;;;;;2.03;1.35;;;29.90;45.60;;;;;;4938875;28;45201;-56
2022/06/27 06:13:07;;;;;;;1.60;1.50;;;29.90;45.80;;;;;;4934280;28;45650;-53
2022/06/27 06:15:33;;;;;;;5.13;1.77;;;29.90;45.90;;;;;;4936047;28;45697;-55
2022/06/27 06:18:01;;;;;;;3.10;1.38;;;30.00;45.90;;;;;;4918819;28;46075;-51
2022/06/27 06:20:27;;;;;;;2.25;1.55;;;29.90;46.00;;;;;;4937022;28;45834;-57
2022/06/27 06:22:53;;;;;;;1.92;1.25;;;29.90;46.10;;;;;;4921431;28;45422;-54
2022/06/27 06:25:19;;;;;;;1.58;1.42;;;30.00;46.30;;;;;;4937247;28;45489;-56
2022/06/27 06:27:45;;;;;;;1.65;1.30;;;30.00;46.20;;;;;;4938637;28;46133;-55
2022/06/27 06:30:11;;;;;;;1.75;1.20;;;30.00;46.10;;;;;;4919041;28;45472;-58
2022/06/27 06:32:36;;;;;;;1.98;1.30;;;30.00;46.20;;;;;;4935858;28;45461;-56
2022/06/27 06:35:04;;;;;;;3.85;2.13;;;30.10;46.30;;;;;;4933292;28;45366;-56
2022/06/27 06:37:31;;;;;;;3.50;1.50;;;30.10;46.30;;;;;;4938612;28;45527;-54
2022/06/27 06:39:57;;;;;;;1.90;1.80;;;30.10;46.20;;;;;;4940175;28;45404;-54
2022/06/27 06:42:23;;;;;;;1.67;1.40;;;30.10;46.00;;;;;;4930187;28;45681;-55
2022/06/27 06:44:49;;;;;;;1.42;1.30;;;30.20;46.00;;;;;;4942978;28;46129;-56
2022/06/27 06:47:16;;;;;;;2.97;1.55;;;30.20;46.10;;;;;;4929946;28;45967;-55
2022/06/27 06:49:44;;;;;;;3.13;1.58;;;30.20;46.10;;;;;;4927542;28;45100;-55
2022/06/27 06:52:09;;;;;;;3.50;1.33;;;30.20;46.00;;;;;;4917768;28;45567;-53
2022/06/27 06:54:36;;;;;;;2.55;1.20;;;30.20;46.00;;;;;;4931097;28;45113;-58
2022/06/27 06:57:02;;;;;;;1.45;1.30;;;30.30;46.00;;;;;;4934581;28;45955;-57
2022/06/27 06:59:28;;;;;;;1.55;1.45;;;30.30;45.90;;;;;;4935523;28;44842;-53
2022/06/27 07:01:54;;;;;;;2.35;1.48;;;30.30;46.00;;;;;;4933950;28;45281;-57
2022/06/27 07:04:20;;;;;;;2.22;1.42;;;30.30;45.90;;;;;;4932270;28;45193;-54
2022/06/27 07:06:46;;;;;;;2.70;1.75;;;30.30;45.90;;;;;;4931999;28;46119;-55
2022/06/27 07:09:12;;;;;;;2.35;1.90;;;30.40;46.00;;;;;;4933077;28;45541;-57
2022/06/27 07:11:39;;;;;;;2.92;1.90;;;30.40;46.10;;;;;;4933465;28;45379;-54
2022/06/27 07:14:05;;;;;;;4.55;2.10;;;30.40;46.20;;;;;;4940041;28;45156;-55
2022/06/27 07:16:31;;;;;;;2.28;2.05;;;30.30;46.30;;;;;;4937953;28;46045;-58
2022/06/27 07:18:57;;;;;;;4.30;2.28;;;30.20;46.40;;;;;;4918280;28;44672;-57
2022/06/27 07:21:24;;;;;;;4.57;2.22;;;30.20;46.70;;;;;;4935954;28;44777;-53
2022/06/27 07:23:50;;;;;;;4.43;2.00;;;30.10;46.80;;;;;;4939564;28;45292;-54
2022/06/27 07:26:17;;;;;;;2.33;2.13;;;30.10;46.90;;;;;;4929789;28;46038;-56
2022/06/27 07:28:43;;;;;;;2.83;2.28;;;30.00;47.00;;;;;;4931469;28;45288;-56
2022/06/27 07:31:11;;;;;;;2.20;2.03;;;30.00;47.10;;;;;;4935116;28;45411;-60
2022/06/27 07:33:49;;;;;;;3.85;2.15;;;29.90;47.20;;;;;;4937994;28;45823;-52
2022/06/27 07:36:17;;;;;;;2.03;1.88;;;29.80;48.00;;;;;;4934096;28;46039;-55
2022/06/27 07:38:44;;;;;;;1.83;1.70;;;29.80;47.70;;;;;;4919437;28;45173;-54
2022/06/27 07:41:10;;;;;;;2.08;1.98;;;29.80;47.80;;;;;;4916983;28;44699;-57
2022/06/27 07:43:37;;;;;;;2.10;1.90;;;29.80;48.00;;;;;;4940680;28;45248;-55
2022/06/27 07:46:03;;;;;;;2.50;2.22;;;29.70;48.00;;;;;;4935693;28;46427;-55
2022/06/27 07:48:28;;;;;;;2.80;2.33;;;29.70;48.10;;;;;;4933422;28;45547;-57
2022/06/27 07:50:56;;;;;;;3.47;2.20;;;29.60;48.10;;;;;;4939778;28;45387;-55
2022/06/27 07:53:21;;;;;;;2.60;2.40;;;29.60;48.30;;;;;;4934416;28;45143;-54
2022/06/27 07:55:51;;;;;;;3.08;2.50;;;29.60;48.30;;;;;;4936291;28;46081;-55
2022/06/27 07:58:18;;;;;;;2.83;2.45;;;29.50;48.50;;;;;;4937730;28;45249;-55
2022/06/27 08:00:45;;;;;;;2.45;2.10;;;29.50;48.70;;;;;;4932919;28;45378;-56
2022/06/27 08:05:56;;;;;;;2.58;2.38;;;29.40;48.90;;;;;;4925448;28;46213;-63
2022/06/27 08:08:23;;;;;;;2.13;1.92;;;29.40;48.80;;;;;;4918927;28;45394;-61
2022/06/27 08:10:50;;;;;;;2.88;2.22;;;29.30;48.90;;;;;;4932898;28;45349;-62
2022/06/27 08:13:16;;;;;;;2.60;2.28;;;29.40;49.30;;;;;;4917123;28;45625;-61
2022/06/27 08:15:42;;;;;;;2.97;2.33;;;29.30;49.20;;;;;;4938971;28;45584;-62
2022/06/27 08:18:08;;;;;;;3.80;2.40;;;29.30;49.20;;;;;;4940977;28;45172;-61
2022/06/27 08:20:35;;;;;;;2.20;1.98;;;29.30;49.40;;;;;;4923719;28;45928;-61
2022/06/27 08:23:01;;;;;;;2.55;2.08;;;29.20;49.40;;;;;;4941910;28;45546;-61
2022/06/27 08:25:28;;;;;;;3.03;2.00;;;29.20;49.60;;;;;;4921668;28;46062;-62
2022/06/27 08:27:54;;;;;;;2.58;2.10;;;29.10;49.70;;;;;;4941264;28;45301;-62
2022/06/27 08:30:25;;;;;;;2.30;2.10;;;29.10;49.90;;;;;;4936823;28;45172;-62
2022/06/27 08:32:54;;;;;;;2.50;2.13;;;29.00;50.00;;;;;;4932315;28;45504;-61
2022/06/27 08:35:20;;;;;;;2.05;1.90;;;29.00;50.00;;;;;;4923021;28;46417;-62
2022/06/27 08:37:46;;;;;;;2.55;2.10;;;29.00;50.00;;;;;;4935705;28;45142;-62
2022/06/27 08:40:12;;;;;;;3.67;1.92;;;29.00;49.90;;;;;;4919931;28;44627;-62
2022/06/27 08:42:38;;;;;;;2.58;1.98;;;28.90;50.00;;;;;;4922872;28;45746;-60
2022/06/27 08:45:07;;;;;;;2.38;1.80;;;28.90;50.00;;;;;;4920687;28;45244;-62
2022/06/27 08:47:32;;;;;;;2.90;1.60;;;28.90;49.90;;;;;;4922723;28;45488;-62
2022/06/27 08:49:58;;;;;;;2.10;1.90;;;28.90;49.80;;;;;;4927166;28;46036;-62
2022/06/27 08:52:24;;;;;;;2.30;1.73;;;28.80;49.70;;;;;;4924958;28;45292;-60
2022/06/27 08:54:51;;;;;;;2.95;1.90;;;28.80;49.80;;;;;;4922785;28;46560;-62
2022/06/27 08:57:18;;;;;;;2.63;1.83;;;28.80;49.70;;;;;;4922763;28;45120;-62
2022/06/27 08:59:44;;;;;;;2.30;1.95;;;28.70;49.70;;;;;;4919714;28;45427;-62
2022/06/27 09:02:10;;;;;;;3.83;1.60;;;28.70;49.70;;;;;;4918399;28;45601;-62
2022/06/27 09:04:58;;;;;;;2.47;1.42;;;28.70;49.80;;;;;;4905935;28;46920;-61
2022/06/27 09:07:24;;;;;;;2.35;1.52;;;28.70;49.90;;;;;;4936547;28;44540;-62
2022/06/27 09:09:50;;;;;;;3.08;1.33;;;28.60;49.60;;;;;;4922990;28;45598;-62
2022/06/27 09:12:17;;;;;;;3.55;1.92;;;28.60;49.70;;;;;;4932508;28;45514;-61
2022/06/27 09:14:43;;;;;;;4.07;1.40;;;28.60;49.60;;;;;;4920087;28;45377;-62
2022/06/27 09:17:13;;;;;;;2.45;1.10;;;28.60;49.70;;;;;;4919384;28;45287;-62
2022/06/27 09:19:54;;;;;;;2.15;1.50;;;28.60;49.80;;;;;;4916345;28;44789;-62
2022/06/27 09:22:23;;;;;;;1.42;0.98;;;28.60;50.00;;;;;;4931964;28;45005;-62
2022/06/27 09:25:13;;;;;;;4.95;1.10;;;28.50;49.80;;;;;;4935114;28;46392;-62
2022/06/27 09:27:43;;;;;;;1.83;1.10;;;28.50;50.00;;;;;;4901997;28;45148;-62
2022/06/27 09:30:21;;;;;;;1.90;1.10;;;28.50;49.80;;;;;;4918657;28;45532;-61
2022/06/27 09:32:51;;;;;;;3.33;1.40;;;28.50;49.90;;;;;;4934269;28;45531;-61
2022/06/27 09:35:26;;;;;;;2.50;1.10;;;28.50;49.70;;;;;;4918767;28;45364;-62
2022/06/27 09:37:58;;;;;;;1.15;1.00;;;28.50;49.90;;;;;;4935181;28;45291;-61
2022/06/27 09:40:25;;;;;;;2.25;1.02;;;28.40;49.90;;;;;;4919797;28;45695;-62
2022/06/27 09:42:54;;;;;;;2.90;1.20;;;28.40;49.80;;;;;;4923125;28;44978;-62
2022/06/27 09:45:24;;;;;;;1.85;1.00;;;28.40;49.80;;;;;;4940931;28;46201;-62
2022/06/27 09:47:56;;;;;;;2.28;1.13;;;28.40;49.90;;;;;;4915685;28;45354;-62
2022/06/27 09:50:25;;;;;;;1.48;0.90;;;28.40;49.80;;;;;;4939422;28;45742;-61
2022/06/27 09:52:51;;;;;;;2.08;0.90;;;28.40;49.70;;;;;;4915485;28;45301;-64
2022/06/27 09:55:18;;;;;;;2.15;1.02;;;28.40;49.60;;;;;;4929562;28;46015;-64
2022/06/27 09:57:44;;;;;;;1.95;0.90;;;28.40;49.50;;;;;;4910803;28;45483;-64
2022/06/27 10:00:11;;;;;;;1.52;0.88;;;28.40;49.30;;;;;;4919569;28;45169;-64
2022/06/27 10:02:36;;;;;;;1.98;0.80;;;28.40;49.30;;;;;;4916461;28;46343;-64
2022/06/27 10:05:03;;;;;;;3.40;0.98;;;28.40;49.30;;;;;;4909109;28;46065;-64
2022/06/27 10:07:29;;;;;;;5.28;1.05;;;28.40;49.30;;;;;;4917117;28;45675;-64
2022/06/27 10:09:54;;;;;;;1.17;0.80;;;28.40;49.20;;;;;;4939369;28;45488;-64
2022/06/27 10:12:24;;;;;;;2.35;1.10;;;28.40;49.20;;;;;;4920060;28;44991;-64
2022/06/27 10:15:14;;;;;;;4.18;1.02;;;28.40;49.20;;;;;;4919006;28;45308;-64
2022/06/27 10:17:46;;;;;;;1.13;0.73;;;28.50;49.30;;;;;;4931552;28;45173;-64
2022/06/27 10:20:12;;;;;;;1.13;0.60;;;28.50;49.10;;;;;;4933269;28;45189;-64
2022/06/27 10:22:39;;;;;;;1.40;0.82;;;28.50;49.60;;;;;;4894177;28;45445;-65
2022/06/27 10:25:26;;;;;;;1.02;0.70;;;28.50;48.90;;;;;;4936591;28;45890;-64
2022/06/27 10:28:14;;;;;;;1.00;0.90;;;28.50;48.90;;;;;;4934039;28;45562;-63
2022/06/27 10:30:47;;;;;;;1.58;0.70;;;28.50;48.90;;;;;;4935468;28;45401;-64
2022/06/27 10:33:28;;;;;;;2.00;1.00;;;28.50;49.00;;;;;;4922675;28;45504;-64
2022/06/27 10:36:02;;;;;;;2.70;0.68;;;28.50;49.00;;;;;;4934902;28;45987;-64
2022/06/27 10:38:34;;;;;;;2.65;0.68;;;28.50;49.00;;;;;;4933993;28;45236;-65
2022/06/27 10:41:03;;;;;;;1.38;0.50;;;28.50;49.00;;;;;;4912978;28;45859;-64
2022/06/27 10:43:40;;;;;;;1.90;0.77;;;28.50;49.10;;;;;;4918291;28;45593;-64
2022/06/27 10:46:11;;;;;;;4.57;0.50;;;28.50;49.20;;;;;;4900957;28;45371;-64
2022/06/27 10:48:40;;;;;;;1.35;0.57;;;28.60;49.20;;;;;;4934818;28;45696;-65
2022/06/27 10:51:18;;;;;;;1.75;0.73;;;28.60;49.00;;;;;;4923177;28;44981;-65
2022/06/27 10:53:44;;;;;;;1.70;0.80;;;28.60;48.90;;;;;;4931360;28;44880;-65
2022/06/27 10:56:31;;;;;;;2.22;0.98;;;28.60;48.80;;;;;;4914576;28;46931;-65
2022/06/27 10:59:04;;;;;;;2.15;0.90;;;28.60;48.80;;;;;;4921600;28;45512;-63
2022/06/27 11:01:30;;;;;;;4.60;1.15;;;28.60;48.70;;;;;;4918653;28;45206;-63
2022/06/27 11:03:56;;;;;;;1.65;0.80;;;28.70;48.70;;;;;;4902932;28;45551;-63
2022/06/27 11:06:21;;;;;;;3.42;0.95;;;28.70;48.70;;;;;;4919227;28;46211;-63
2022/06/27 11:08:52;;;;;;;1.40;0.80;;;28.70;48.70;;;;;;4917623;28;45146;-62
2022/06/27 11:11:25;;;;;;;1.33;0.68;;;28.70;48.40;;;;;;4929140;28;45261;-68
2022/06/27 11:13:58;;;;;;;3.20;0.80;;;28.70;48.30;;;;;;4932290;28;45751;-65
2022/06/27 11:16:24;;;;;;;;;;;28.80;48.20;;;;;;4933325;28;46178;-66
2022/06/27 11:18:51;;;;;;;1.90;0.60;;;28.70;48.10;;;;;;4917340;28;45208;-67
2022/06/27 11:21:21;;;;;;;1.27;0.40;;;28.80;48.10;;;;;;4913762;28;45255;-64
2022/06/27 11:23:54;;;;;;;1.27;0.60;;;28.80;48.10;;;;;;4904096;28;45408;-65
2022/06/27 11:26:20;;;;;;;1.23;0.52;;;28.80;48.00;;;;;;4929876;28;45011;-65
2022/06/27 11:34:15;;;;;;;1.90;0.50;;;28.90;47.70;;;;;;4919381;28;45549;-66
2022/06/27 11:36:40;;;;;;;3.03;0.32;;;29.00;47.60;;;;;;4915405;28;45367;-66
2022/06/27 11:39:06;;;;;;;0.75;0.32;;;29.00;47.50;;;;;;4866812;28;45682;-67
2022/06/27 11:41:32;;;;;;;2.30;0.60;;;29.00;47.30;;;;;;4932834;28;45356;-66
2022/06/27 11:44:02;;;;;;;1.25;0.50;;;29.00;47.20;;;;;;4916446;28;45781;-67
2022/06/27 11:46:40;;;;;;;2.22;0.55;;;29.00;47.20;;;;;;4929007;28;46411;-66
2022/06/27 11:49:10;;;;;;;1.90;0.80;;;29.00;47.00;;;;;;4903616;28;45227;-67
2022/06/27 11:51:47;;;;;;;0.50;0.50;;;29.00;47.00;;;;;;4919607;28;45550;-68
2022/06/27 11:54:19;;;;;;;1.30;0.57;;;29.00;46.90;;;;;;4939319;28;45180;-70
2022/06/27 11:56:47;;;;;;;2.35;0.63;;;29.10;46.90;;;;;;4917010;28;45786;-67
2022/06/27 11:59:15;;;;;;;2.60;0.80;;;29.10;47.00;;;;;;4918707;28;45246;-66
2022/06/27 12:01:51;;;;;;;3.13;0.80;;;29.10;46.90;;;;;;4913877;28;45246;-67
2022/06/27 12:04:17;;;;;;;2.10;0.77;;;29.20;47.00;;;;;;4920745;28;45589;-65
2022/06/27 12:06:44;;;;;;;1.88;0.70;;;29.20;47.00;;;;;;4919918;28;45874;-66
2022/06/27 12:09:09;;;;;;;2.80;1.00;;;29.20;46.90;;;;;;4932786;28;45546;-67
2022/06/27 12:11:35;;;;;;;1.67;1.00;;;29.20;46.90;;;;;;4921531;28;45272;-67
2022/06/27 12:14:01;;;;;;;2.25;0.80;;;29.30;47.00;;;;;;4916689;28;45681;-64
2022/06/27 12:16:27;;;;;;;2.53;1.10;;;29.30;47.00;;;;;;4930914;28;46430;-63
2022/06/27 12:18:52;;;;;;;3.35;1.38;;;29.30;47.00;;;;;;4919255;28;44696;-65
2022/06/27 12:21:24;;;;;;;4.00;1.40;;;29.30;47.00;;;;;;4929739;28;45142;-64
2022/06/27 12:23:50;;;;;;;4.30;1.10;;;29.20;47.00;;;;;;4941810;28;44692;-64
2022/06/27 12:26:16;;;;;;;1.13;1.02;;;29.20;47.10;;;;;;4917555;28;45936;-64
2022/06/27 12:28:41;;;;;;;1.83;1.60;;;29.30;47.20;;;;;;4918477;28;44943;-65
2022/06/27 12:31:07;;;;;;;2.17;1.58;;;29.20;47.20;;;;;;4909700;28;45217;-67
2022/06/27 12:33:33;;;;;;;2.13;1.52;;;29.20;47.30;;;;;;4936066;28;44968;-67
2022/06/27 12:35:59;;;;;;;4.88;1.77;;;29.20;47.40;;;;;;4921563;28;46239;-67
2022/06/27 12:38:24;;;;;;;1.65;1.48;;;29.20;47.50;;;;;;4917942;28;45233;-68
2022/06/27 12:40:50;;;;;;;1.85;1.60;;;29.20;47.40;;;;;;4931498;28;44649;-65
2022/06/27 12:43:16;;;;;;;2.40;1.55;;;29.30;47.30;;;;;;4917545;28;45377;-71
2022/06/27 12:45:41;;;;;;;4.93;1.98;;;29.30;47.20;;;;;;4933102;28;45836;-65
2022/06/27 12:48:07;;;;;;;2.00;1.70;;;29.30;47.10;;;;;;4913976;28;45311;-69
2022/06/27 12:50:33;;;;;;;3.17;2.00;;;29.20;47.00;;;;;;4912132;28;46462;-67
2022/06/27 12:52:59;;;;;;;3.63;2.13;;;29.20;47.00;;;;;;4927410;28;45535;-65
2022/06/27 12:55:24;;;;;;;3.70;2.20;;;29.30;47.00;;;;;;4942539;28;45237;-69
2022/06/27 12:57:50;;;;;;;3.65;2.10;;;29.30;47.10;;;;;;4917287;28;45618;-66
2022/06/27 13:00:16;;;;;;;3.60;2.35;;;29.20;46.90;;;;;;4904061;28;45240;-68
2022/06/27 13:02:41;;;;;;;4.10;2.08;;;29.30;47.00;;;;;;4933721;28;45458;-67
2022/06/27 13:05:07;;;;;;;2.08;1.98;;;29.30;46.90;;;;;;4942036;28;46106;-66
2022/06/27 13:07:33;;;;;;;2.75;2.22;;;29.30;47.00;;;;;;4936017;28;45518;-67
2022/06/27 13:09:58;;;;;;;3.00;2.65;;;29.30;46.90;;;;;;4934751;28;45576;-66
2022/06/27 13:12:24;;;;;;;3.08;2.20;;;29.30;46.70;;;;;;4919330;28;45419;-67
2022/06/27 13:14:49;;;;;;;3.22;2.92;;;29.30;46.80;;;;;;4941287;28;46024;-68
2022/06/27 13:17:15;;;;;;;4.35;3.00;;;29.30;46.80;;;;;;4917392;28;45577;-67
2022/06/27 13:19:40;;;;;;;3.33;2.72;;;29.30;46.70;;;;;;4935450;28;44881;-66
2022/06/27 13:22:06;;;;;;;7.60;2.80;;;29.30;46.70;;;;;;4934834;28;45512;-65
2022/06/27 13:24:32;;;;;;;4.55;3.55;;;29.30;46.70;;;;;;4936426;28;45193;-67
2022/06/27 13:26:57;;;;;;;5.07;3.17;;;29.30;46.70;;;;;;4901092;28;45692;-68
2022/06/27 13:29:25;;;;;;;5.93;3.40;;;29.30;46.70;;;;;;4901562;28;44825;-67
2022/06/27 13:31:52;;;;;;;5.18;3.55;;;29.30;46.60;;;;;;4915364;28;45521;-67
2022/06/27 13:34:18;;;;;;;3.20;2.90;;;29.30;46.60;;;;;;4918251;28;46176;-65
2022/06/27 13:36:45;;;;;;;2.90;2.53;;;29.40;46.50;;;;;;4903586;28;45447;-68
2022/06/27 13:39:12;;;;;;;3.85;2.80;;;29.40;46.50;;;;;;4920747;28;45235;-68
2022/06/27 13:41:38;;;;;;;7.05;3.28;;;29.40;46.50;;;;;;4926972;28;44954;-66
2022/06/27 13:44:04;;;;;;;3.55;3.10;;;29.40;46.40;;;;;;4918502;28;46269;-67
2022/06/27 13:46:30;;;;;;;3.55;2.75;;;29.40;46.30;;;;;;4916295;28;45576;-70
2022/06/27 13:48:55;;;;;;;5.90;2.88;;;29.30;46.30;;;;;;4921460;28;45844;-68
2022/06/27 13:51:21;;;;;;;2.92;2.53;;;29.30;46.30;;;;;;4934768;28;45507;-69
2022/06/27 13:53:46;;;;;;;3.03;2.42;;;29.30;46.30;;;;;;4942248;28;47051;-64
2022/06/27 13:56:12;;;;;;;3.78;2.05;;;29.30;46.30;;;;;;4940062;28;45612;-64
2022/06/27 13:58:38;;;;;;;2.92;2.60;;;29.30;46.30;;;;;;4932945;28;45414;-64
2022/06/27 14:01:03;;;;;;;2.22;2.03;;;29.30;46.30;;;;;;4936591;28;45382;-65
2022/06/27 14:03:29;;;;;;;2.90;2.38;;;29.30;46.20;;;;;;4923643;28;46110;-63
2022/06/27 14:07:35;;;;;;;4.30;2.60;;;29.30;46.10;;;;;;4933435;28;45519;-63
2022/06/27 14:08:40;;;;;;;2.55;2.05;;;29.30;46.00;;;;;;4943198;28;45440;-63
2022/06/27 14:11:06;;;;;;;1.75;1.65;;;29.30;46.00;;;;;;4928287;28;45625;-63
2022/06/27 14:13:31;;;;;;;2.53;2.17;;;29.40;46.00;;;;;;4921232;28;45973;-64
2022/06/27 14:15:57;;;;;;;4.65;1.90;;;29.40;45.90;;;;;;4918934;28;45530;-65
2022/06/27 14:18:23;;;;;;;2.13;1.90;;;29.40;45.80;;;;;;4934778;28;45519;-66
2022/06/27 14:20:48;;;;;;;2.22;1.58;;;29.40;45.70;;;;;;4891273;28;46242;-68
2022/06/27 14:23:14;;;;;;;3.75;1.80;;;29.40;45.80;;;;;;4939841;28;45832;-65
2022/06/27 14:25:39;;;;;;;1.90;1.80;;;29.40;45.70;;;;;;4923887;28;45531;-66
2022/06/27 14:28:05;;;;;;;2.78;1.75;;;29.30;45.70;;;;;;4924814;28;45602;-65
2022/06/27 14:30:30;;;;;;;6.53;1.83;;;29.30;45.70;;;;;;4920316;28;45419;-65
2022/06/27 14:32:56;;;;;;;2.10;1.60;;;29.40;45.70;;;;;;4924753;28;45553;-65
2022/06/27 14:35:21;;;;;;;3.22;1.52;;;29.40;45.70;;;;;;4927695;28;45352;-65
2022/06/27 14:37:47;;;;;;;2.05;1.40;;;29.40;45.50;;;;;;4910638;28;46403;-65
2022/06/27 14:40:12;;;;;;;1.92;1.25;;;29.40;45.50;;;;;;4939961;28;44711;-67
2022/06/27 14:42:38;;;;;;;3.08;1.52;;;29.50;45.70;;;;;;4939163;28;45484;-66
2022/06/27 14:45:04;;;;;;;3.00;1.60;;;29.50;45.60;;;;;;4923874;28;45801;-65
2022/06/27 14:47:30;;;;;;;1.83;1.50;;;29.40;45.50;;;;;;4933355;28;46427;-66
2022/06/27 14:49:55;;;;;;;3.20;1.20;;;29.40;45.70;;;;;;4919030;28;45215;-65
2022/06/27 14:52:21;;;;;;;2.58;1.10;;;29.50;45.70;;;;;;4939280;28;45143;-66
2022/06/27 14:54:46;;;;;;;2.42;1.27;;;29.40;45.60;;;;;;4923887;28;45124;-66
2022/06/27 14:57:12;;;;;;;3.33;1.13;;;29.50;45.60;;;;;;4940136;28;45426;-65
2022/06/27 14:59:38;;;;;;;2.47;1.38;;;29.50;45.50;;;;;;4938012;28;45017;-65
2022/06/27 15:02:04;;;;;;;3.55;1.45;;;29.50;45.40;;;;;;4920446;28;46494;-65
2022/06/27 15:04:30;;;;;;;4.75;1.80;;;29.60;45.40;;;;;;4909270;28;45222;-65
2022/06/27 15:06:55;;;;;;;1.98;1.25;;;29.60;45.40;;;;;;4925275;28;45255;-67
2022/06/27 15:09:21;;;;;;;2.15;1.23;;;29.50;45.30;;;;;;4937474;28;45172;-65
2022/06/27 15:11:49;;;;;;;2.50;1.40;;;29.60;45.30;;;;;;4937146;28;45335;-64
2022/06/27 15:14:17;;;;;;;1.50;1.20;;;29.60;45.20;;;;;;4918863;28;45162;-65
2022/06/27 15:16:46;;;;;;;0.98;0.90;;;29.60;45.10;;;;;;4938255;28;45521;-64
2022/06/27 15:19:17;;;;;;;6.50;1.10;;;29.70;45.00;;;;;;4926896;28;45636;-65
2022/06/27 15:21:42;;;;;;;1.50;0.93;;;29.70;45.00;;;;;;4918930;28;44958;-65
2022/06/27 15:24:09;;;;;;;1.25;0.90;;;29.70;45.00;;;;;;4937740;28;45187;-65
2022/06/27 15:26:34;;;;;;;1.00;0.90;;;29.70;44.90;;;;;;4905644;28;45084;-66
2022/06/27 15:29:00;;;;;;;1.80;0.88;;;29.70;44.80;;;;;;4899976;28;45332;-65
2022/06/27 15:31:26;;;;;;;1.80;0.90;;;29.80;44.80;;;;;;4911153;28;45916;-65
2022/06/27 15:33:52;;;;;;;2.30;1.05;;;29.80;44.80;;;;;;4913842;28;45804;-66
2022/06/27 15:36:18;;;;;;;2.05;0.77;;;29.80;44.80;;;;;;4899555;28;45354;-65
2022/06/27 15:38:43;;;;;;;2.05;0.80;;;29.80;44.80;;;;;;4900405;28;46214;-65
2022/06/27 15:41:09;;;;;;;1.70;0.93;;;29.80;44.90;;;;;;4928657;28;46840;-65
2022/06/27 15:43:34;;;;;;;1.88;0.85;;;29.80;44.90;;;;;;4928946;28;45795;-65
2022/06/27 15:46:00;;;;;;;1.77;0.75;;;29.80;45.00;;;;;;4914863;28;45438;-65
2022/06/27 15:48:26;;;;;;;1.35;0.80;;;29.80;44.90;;;;;;4899024;28;45604;-65
2022/06/27 15:50:51;;;;;;;1.67;0.60;;;29.80;44.70;;;;;;4915440;28;45972;-65
2022/06/27 15:53:17;;;;;;;1.30;0.90;;;29.90;44.70;;;;;;4900991;28;45200;-65
2022/06/27 15:55:42;;;;;;;1.15;0.70;;;29.90;44.70;;;;;;4914162;28;45541;-65
2022/06/27 15:58:08;;;;;;;1.85;0.75;;;30.00;44.70;;;;;;4933560;28;45220;-65